Gadsden, South Carolina
Current Conditions -  °F | °C
As of 1:48 PM on Sunday 23 Nov 2014 (Local Time) from KMMT Reporting Station
Light Rain Light Rain  
Wind Chill: 61°   Ceiling: 400
Heat Index: 61°   Visibility: 2.7mi
Dew Point: 59°   Wind: 10mph
Humidity: 94%   Direction: 100°E
Pressure: 29.94"   Gusts: NA
Location:  33.85°N, 80.77°W
Report Text: KMMT 231848Z 10009KT 2 3/4SM -RA BR OVC004 16/15 A2994 RMK AO2A
Loading
Personal Weather Stations






























Interactive Weather Map New forecast layout! Learn more

10-Day Weather Forecast

Advertisements
Track Severe Weather on mobile